Time;durP1;ratioP1;P1;durP2;ratioP2;P2;SDS_P1;SDS_P2;PMS_P1;PMS_P2;Temp;Humidity;BMP_temperature;BMP_pressure;BME280_temperature;BME280_humidity;BME280_pressure;Samples;Min_cycle;Max_cycle;Signal;HPM_P1;HPM_P2
2023/03/27 00:00:33;;;;;;;4.72;0.60;;;4.10;68.60;;;;;;5070993;28;20948;-80
2023/03/27 00:03:00;;;;;;;6.53;0.70;;;4.00;68.80;;;;;;5052494;28;20053;-80
2023/03/27 00:05:27;;;;;;;5.03;0.80;;;3.90;69.00;;;;;;5069197;28;20056;-80
2023/03/27 00:07:56;;;;;;;5.97;1.10;;;3.90;69.10;;;;;;5069116;28;20311;-81
2023/03/27 00:10:24;;;;;;;7.22;0.70;;;3.90;69.20;;;;;;5071025;28;20053;-80
2023/03/27 00:12:51;;;;;;;5.63;0.50;;;3.90;69.40;;;;;;5069300;28;20111;-80
2023/03/27 00:15:18;;;;;;;4.75;0.80;;;3.90;69.50;;;;;;5069074;28;20606;-80
2023/03/27 00:17:50;;;;;;;6.87;0.60;;;3.80;69.50;;;;;;5069038;28;20144;-80
2023/03/27 00:20:21;;;;;;;7.03;0.80;;;3.70;69.70;;;;;;5069050;28;20757;-80
2023/03/27 00:22:54;;;;;;;4.22;0.70;;;3.70;69.70;;;;;;5069268;28;20041;-80
2023/03/27 00:25:23;;;;;;;7.00;1.00;;;3.70;69.60;;;;;;5069262;28;20435;-80
2023/03/27 00:27:51;;;;;;;7.40;0.70;;;3.70;69.70;;;;;;5069365;28;20119;-80
2023/03/27 00:30:18;;;;;;;6.57;1.20;;;3.60;69.90;;;;;;5068941;28;20179;-80
2023/03/27 00:32:45;;;;;;;5.85;0.60;;;3.60;70.00;;;;;;5069219;28;20307;-80
2023/03/27 00:35:13;;;;;;;7.22;0.88;;;3.60;70.10;;;;;;5051996;28;20065;-81
2023/03/27 00:37:40;;;;;;;5.93;0.60;;;3.60;70.10;;;;;;5052183;28;20482;-80
2023/03/27 00:40:14;;;;;;;4.13;0.45;;;3.50;69.90;;;;;;5048547;28;20053;-80
2023/03/27 00:42:43;;;;;;;5.63;0.60;;;3.50;69.90;;;;;;5066480;28;20084;-80
2023/03/27 00:45:16;;;;;;;5.53;0.50;;;3.50;70.00;;;;;;5039830;28;20253;-80
2023/03/27 00:47:45;;;;;;;4.95;0.60;;;3.50;69.90;;;;;;5059007;28;20129;-80
2023/03/27 00:50:16;;;;;;;5.18;0.60;;;3.50;69.70;;;;;;5037921;28;20421;-80
2023/03/27 00:52:46;;;;;;;7.32;0.70;;;3.40;69.90;;;;;;5039400;28;20158;-80
2023/03/27 00:55:16;;;;;;;4.23;0.60;;;3.40;70.00;;;;;;5066814;28;20814;-80
2023/03/27 00:57:48;;;;;;;4.22;0.60;;;3.30;70.10;;;;;;5058958;28;20352;-80
2023/03/27 01:00:15;;;;;;;6.63;0.77;;;3.30;70.10;;;;;;5031709;28;20080;-81
2023/03/27 01:02:46;;;;;;;7.15;0.90;;;3.30;70.10;;;;;;5048413;28;20501;-80
2023/03/27 01:05:14;;;;;;;6.97;0.93;;;3.30;70.20;;;;;;5049882;28;20054;-80
2023/03/27 01:07:43;;;;;;;3.73;0.50;;;3.30;70.10;;;;;;5031843;28;20045;-80
2023/03/27 01:10:12;;;;;;;4.97;0.32;;;3.30;70.20;;;;;;5031540;28;20249;-80
2023/03/27 01:12:50;;;;;;;4.50;0.40;;;3.30;70.20;;;;;;5031687;28;20056;-80
2023/03/27 01:15:26;;;;;;;2.95;0.28;;;3.30;70.10;;;;;;5031661;28;20049;-80
2023/03/27 01:18:05;;;;;;;5.95;0.40;;;3.30;70.30;;;;;;5031307;28;20054;-80
2023/03/27 01:21:15;;;;;;;4.83;0.40;;;3.20;70.50;;;;;;5031408;28;20053;-80
2023/03/27 01:24:30;;;;;;;3.85;0.40;;;3.20;70.40;;;;;;5021724;28;20260;-80
2023/03/27 01:27:06;;;;;;;1.30;0.20;;;3.10;70.40;;;;;;5007950;28;20053;-80
2023/03/27 01:29:47;;;;;;;5.65;0.47;;;3.10;70.50;;;;;;5030775;28;20849;-80
2023/03/27 01:33:03;;;;;;;4.65;0.55;;;3.10;70.60;;;;;;5031429;28;20529;-80
2023/03/27 01:36:01;;;;;;;4.97;0.67;;;3.10;70.60;;;;;;5047941;28;20060;-80
2023/03/27 01:39:04;;;;;;;6.20;0.50;;;3.10;71.10;;;;;;5031152;28;20257;-80
2023/03/27 01:41:38;;;;;;;3.72;0.40;;;3.10;71.10;;;;;;5001584;28;20140;-80
2023/03/27 01:44:12;;;;;;;2.75;0.30;;;3.00;71.60;;;;;;5031281;28;20136;-80
2023/03/27 01:46:46;;;;;;;4.85;0.50;;;3.00;71.80;;;;;;5031299;28;20703;-80
2023/03/27 01:49:17;;;;;;;6.47;0.50;;;3.00;71.80;;;;;;5031161;28;20145;-80
2023/03/27 01:51:49;;;;;;;6.47;0.50;;;3.00;71.90;;;;;;5030877;28;20294;-80
2023/03/27 01:54:21;;;;;;;5.07;0.45;;;3.00;71.90;;;;;;5047153;28;20057;-80
2023/03/27 01:56:55;;;;;;;6.28;0.70;;;3.00;71.70;;;;;;5029881;28;20053;-80
2023/03/27 01:59:27;;;;;;;5.53;0.63;;;3.00;72.00;;;;;;5029084;28;20057;-80
2023/03/27 02:02:00;;;;;;;3.20;0.50;;;2.90;72.20;;;;;;5029516;28;20069;-80
2023/03/27 02:04:33;;;;;;;4.60;0.45;;;2.90;72.00;;;;;;5029560;28;20253;-80
2023/03/27 02:07:04;;;;;;;4.93;0.47;;;2.90;72.20;;;;;;5029516;28;20054;-80
2023/03/27 02:09:37;;;;;;;5.72;0.77;;;2.90;72.40;;;;;;5029507;28;20144;-80
2023/03/27 02:12:11;;;;;;;7.05;0.70;;;2.90;72.30;;;;;;5030378;28;20093;-80
2023/03/27 02:14:42;;;;;;;3.37;0.67;;;2.80;72.40;;;;;;5030374;28;20111;-80
2023/03/27 02:17:14;;;;;;;3.78;0.40;;;2.80;73.00;;;;;;5038874;28;20271;-80
2023/03/27 02:19:47;;;;;;;3.97;0.30;;;2.80;72.70;;;;;;5066648;28;20049;-80
2023/03/27 02:22:15;;;;;;;4.88;0.30;;;2.80;72.60;;;;;;5050069;28;20053;-80
2023/03/27 02:24:47;;;;;;;2.97;0.40;;;2.80;73.00;;;;;;5050222;28;20052;-80
2023/03/27 02:27:23;;;;;;;4.23;0.40;;;2.70;73.30;;;;;;5050230;28;20481;-80
2023/03/27 02:30:00;;;;;;;6.85;0.45;;;2.70;73.30;;;;;;5050227;28;20280;-80
2023/03/27 02:32:38;;;;;;;4.22;0.43;;;2.70;73.50;;;;;;5067297;28;20049;-80
2023/03/27 02:35:29;;;;;;;6.32;0.70;;;2.60;73.70;;;;;;5030328;28;20049;-80
2023/03/27 02:38:05;;;;;;;6.85;0.65;;;2.60;73.90;;;;;;5030828;28;20060;-79
2023/03/27 02:40:41;;;;;;;3.53;0.30;;;2.60;74.30;;;;;;5048254;28;20052;-80
2023/03/27 02:43:37;;;;;;;2.92;0.38;;;2.60;74.60;;;;;;5046450;28;20273;-80
2023/03/27 02:46:14;;;;;;;5.15;0.40;;;2.50;74.70;;;;;;5050154;28;20045;-80
2023/03/27 02:48:45;;;;;;;5.78;0.77;;;2.50;74.80;;;;;;5050238;28;20148;-80
2023/03/27 02:51:17;;;;;;;4.82;0.40;;;2.50;75.10;;;;;;5049955;28;20059;-80
2023/03/27 02:53:47;;;;;;;4.27;0.40;;;2.50;75.30;;;;;;5050256;28;20075;-80
2023/03/27 02:56:17;;;;;;;5.07;0.35;;;2.50;75.70;;;;;;5073598;22;20273;-79
2023/03/27 02:58:50;;;;;;;3.55;0.30;;;2.50;75.90;;;;;;5031195;28;20058;-80
2023/03/27 03:01:36;;;;;;;4.63;0.77;;;2.50;76.10;;;;;;5043769;28;20156;-81
2023/03/27 03:04:23;;;;;;;1.67;0.17;;;2.50;76.90;;;;;;5050796;28;20049;-80
2023/03/27 03:07:10;;;;;;;2.53;0.50;;;2.50;77.30;;;;;;5069324;28;21029;-80
2023/03/27 03:09:37;;;;;;;4.68;0.28;;;2.50;77.10;;;;;;5053763;28;20341;-80
2023/03/27 03:12:05;;;;;;;3.70;0.57;;;2.50;76.90;;;;;;5034463;28;20099;-80
2023/03/27 03:14:43;;;;;;;4.13;0.47;;;2.50;77.10;;;;;;5034575;28;20148;-80
2023/03/27 03:17:11;;;;;;;1.98;0.20;;;2.50;77.40;;;;;;5053232;28;20509;-80
2023/03/27 03:19:39;;;;;;;5.10;0.70;;;2.50;77.40;;;;;;5034477;28;20057;-80
2023/03/27 03:22:07;;;;;;;4.78;0.50;;;2.50;77.80;;;;;;5034409;28;20360;-80
2023/03/27 03:24:36;;;;;;;3.40;0.30;;;2.50;77.60;;;;;;5050898;28;20057;-80
2023/03/27 03:27:04;;;;;;;7.70;0.60;;;2.50;77.80;;;;;;5050886;28;20900;-79
2023/03/27 03:29:39;;;;;;;4.03;0.40;;;2.40;77.40;;;;;;5050585;28;20053;-80
2023/03/27 03:32:15;;;;;;;2.93;0.37;;;2.50;77.20;;;;;;5050851;28;20050;-80
2023/03/27 03:34:45;;;;;;;3.63;0.32;;;2.50;77.70;;;;;;5050631;28;20358;-80
2023/03/27 03:37:14;;;;;;;3.00;0.20;;;2.50;77.80;;;;;;5050855;28;20052;-80
2023/03/27 03:39:41;;;;;;;6.30;0.85;;;2.50;78.10;;;;;;5050568;28;20794;-80
2023/03/27 03:42:09;;;;;;;2.92;0.35;;;2.50;77.70;;;;;;5050851;28;20045;-80
2023/03/27 03:44:37;;;;;;;4.90;0.50;;;2.50;78.60;;;;;;5034296;28;20052;-80
2023/03/27 03:47:19;;;;;;;3.35;0.40;;;2.40;78.50;;;;;;5034205;28;20267;-80
2023/03/27 03:49:46;;;;;;;3.92;0.30;;;2.40;79.10;;;;;;5050868;28;20045;-80
2023/03/27 03:52:14;;;;;;;6.55;0.40;;;2.40;79.30;;;;;;5050491;28;20054;-80
2023/03/27 03:54:42;;;;;;;1.70;0.20;;;2.40;79.20;;;;;;5050455;28;20053;-80
2023/03/27 03:57:09;;;;;;;1.90;0.30;;;2.40;79.30;;;;;;5049999;28;20048;-80
2023/03/27 03:59:36;;;;;;;4.07;0.70;;;2.40;79.10;;;;;;5049843;28;20386;-79
2023/03/27 04:02:28;;;;;;;4.25;0.30;;;2.30;79.90;;;;;;5050570;28;20045;-80
2023/03/27 04:05:01;;;;;;;5.53;0.68;;;2.30;79.90;;;;;;5033661;28;20052;-80
2023/03/27 04:07:30;;;;;;;2.65;0.43;;;2.30;79.70;;;;;;5050406;28;20084;-80
2023/03/27 04:10:09;;;;;;;2.47;0.10;;;2.30;79.80;;;;;;5050572;28;20049;-80
2023/03/27 04:12:36;;;;;;;3.25;0.25;;;2.30;79.50;;;;;;5029550;28;20372;-80
2023/03/27 04:15:09;;;;;;;3.38;0.30;;;2.30;79.70;;;;;;5042693;28;20172;-80
2023/03/27 04:18:08;;;;;;;4.15;0.50;;;2.30;79.70;;;;;;5049957;28;20061;-80
2023/03/27 04:20:36;;;;;;;2.08;0.20;;;2.20;79.70;;;;;;5032997;28;20084;-80
2023/03/27 04:23:06;;;;;;;2.67;0.30;;;2.20;79.90;;;;;;5033519;28;20077;-80
2023/03/27 04:25:37;;;;;;;7.88;0.50;;;2.30;79.70;;;;;;5041669;28;20288;-79
2023/03/27 04:28:05;;;;;;;2.95;0.30;;;2.20;79.40;;;;;;5060727;28;20041;-80
2023/03/27 04:30:42;;;;;;;4.38;0.60;;;2.30;79.30;;;;;;5024916;28;20050;-78
2023/03/27 04:33:29;;;;;;;4.68;0.65;;;2.20;79.20;;;;;;5048597;28;20151;-78
2023/03/27 04:36:00;;;;;;;1.63;0.10;;;2.20;79.10;;;;;;5042171;28;20049;-78
2023/03/27 04:38:33;;;;;;;2.67;0.40;;;2.20;79.00;;;;;;5031498;28;20277;-78
2023/03/27 04:41:02;;;;;;;3.03;0.38;;;2.20;78.90;;;;;;5031224;28;20135;-77
2023/03/27 04:43:29;;;;;;;2.22;0.30;;;2.20;78.90;;;;;;5031566;28;20045;-78
2023/03/27 04:45:57;;;;;;;2.97;0.35;;;2.20;78.70;;;;;;5030508;28;20061;-78
2023/03/27 04:48:25;;;;;;;1.17;0.10;;;2.20;78.80;;;;;;5029203;28;20052;-78
2023/03/27 04:50:58;;;;;;;2.95;0.30;;;2.20;78.90;;;;;;5031276;28;20800;-77
2023/03/27 04:53:35;;;;;;;2.45;0.50;;;2.20;78.80;;;;;;5032603;28;20863;-78
2023/03/27 04:56:02;;;;;;;1.10;0.10;;;2.20;79.20;;;;;;5032098;28;20064;-78
2023/03/27 04:58:33;;;;;;;7.13;0.60;;;2.20;79.20;;;;;;5032618;28;20053;-78
2023/03/27 05:01:05;;;;;;;2.63;0.40;;;2.10;79.20;;;;;;5032060;28;20053;-77
2023/03/27 05:03:50;;;;;;;2.75;0.35;;;2.10;79.10;;;;;;5048723;28;20268;-78
2023/03/27 05:06:31;;;;;;;4.05;0.50;;;2.10;79.50;;;;;;5031983;28;20610;-78
2023/03/27 05:08:59;;;;;;;3.95;0.40;;;2.10;79.30;;;;;;5031827;28;20103;-78
2023/03/27 05:11:30;;;;;;;3.15;0.30;;;2.10;79.20;;;;;;5032676;28;20077;-78
2023/03/27 05:13:57;;;;;;;2.13;0.23;;;2.10;79.40;;;;;;5032466;28;20778;-78
2023/03/27 05:16:27;;;;;;;0.75;0.03;;;2.00;79.50;;;;;;5032372;28;20288;-77
2023/03/27 05:19:03;;;;;;;3.72;0.45;;;2.00;79.40;;;;;;5048923;28;20127;-78
2023/03/27 05:21:38;;;;;;;1.88;0.30;;;2.10;79.30;;;;;;5032042;28;20069;-77
2023/03/27 05:24:09;;;;;;;3.03;0.40;;;2.10;79.30;;;;;;5031670;28;20042;-77
2023/03/27 05:26:38;;;;;;;6.30;0.60;;;2.00;79.40;;;;;;5031646;28;20060;-78
2023/03/27 05:29:07;;;;;;;3.72;0.40;;;2.00;79.30;;;;;;5047891;28;20260;-77
2023/03/27 05:31:38;;;;;;;2.78;0.50;;;2.00;79.10;;;;;;5015859;28;20112;-77
2023/03/27 05:34:25;;;;;;;3.55;0.40;;;2.10;79.20;;;;;;5046644;28;20404;-78
2023/03/27 05:36:57;;;;;;;2.90;0.40;;;2.10;79.20;;;;;;5062445;28;20045;-78
2023/03/27 05:39:25;;;;;;;4.13;0.47;;;2.10;79.20;;;;;;5069214;28;20053;-78
2023/03/27 05:41:53;;;;;;;4.10;0.65;;;2.10;79.10;;;;;;5042155;28;20249;-78
2023/03/27 05:44:24;;;;;;;4.43;0.55;;;2.00;79.20;;;;;;5061457;28;20053;-78
2023/03/27 05:46:51;;;;;;;3.17;0.45;;;2.10;79.10;;;;;;5045307;28;20065;-78
2023/03/27 05:49:25;;;;;;;5.32;0.70;;;2.10;79.10;;;;;;5063738;28;20055;-78
2023/03/27 05:51:58;;;;;;;3.83;0.40;;;2.10;79.00;;;;;;5068413;28;20053;-78
2023/03/27 05:54:27;;;;;;;5.85;0.75;;;2.10;79.00;;;;;;5063256;28;20252;-78
2023/03/27 05:57:08;;;;;;;8.43;0.88;;;2.10;78.90;;;;;;5043823;28;20495;-77
2023/03/27 05:59:37;;;;;;;6.28;0.90;;;2.10;78.80;;;;;;5068268;28;20144;-78
2023/03/27 06:02:33;;;;;;;6.70;0.60;;;2.20;78.80;;;;;;5065808;28;20053;-78
2023/03/27 06:05:09;;;;;;;8.67;1.00;;;2.20;78.70;;;;;;5068509;28;20033;-78
2023/03/27 06:07:39;;;;;;;6.65;0.90;;;2.20;78.70;;;;;;5061668;28;20419;-78
2023/03/27 06:10:08;;;;;;;4.18;0.60;;;2.20;79.20;;;;;;5048141;28;20053;-78
2023/03/27 06:13:00;;;;;;;5.18;0.88;;;2.20;79.00;;;;;;5046998;28;20053;-78
2023/03/27 06:15:37;;;;;;;5.75;0.85;;;2.20;79.00;;;;;;5031434;28;20057;-78
2023/03/27 06:18:25;;;;;;;5.97;0.80;;;2.20;79.00;;;;;;5047927;28;20061;-78
2023/03/27 06:20:52;;;;;;;4.10;0.68;;;2.30;78.90;;;;;;5041398;28;20244;-78
2023/03/27 06:23:21;;;;;;;4.10;0.60;;;2.30;78.80;;;;;;5065107;28;20107;-78
2023/03/27 06:25:50;;;;;;;5.25;0.50;;;2.40;78.90;;;;;;5040557;28;20044;-78
2023/03/27 06:28:17;;;;;;;5.38;0.60;;;2.40;78.60;;;;;;5039810;28;20069;-78
2023/03/27 06:30:46;;;;;;;4.47;0.47;;;2.40;78.40;;;;;;5031281;28;20061;-78
2023/03/27 06:33:33;;;;;;;3.80;0.75;;;2.50;78.70;;;;;;5047759;28;20257;-78
2023/03/27 06:36:04;;;;;;;5.75;0.85;;;2.50;78.50;;;;;;5031226;28;20172;-78
2023/03/27 06:38:36;;;;;;;4.18;0.68;;;2.50;78.50;;;;;;5034066;28;20053;-78
2023/03/27 06:41:05;;;;;;;4.97;0.63;;;2.50;78.40;;;;;;5042286;28;20544;-78
2023/03/27 06:43:52;;;;;;;4.07;0.40;;;2.60;78.40;;;;;;5042174;28;20057;-78
2023/03/27 06:46:32;;;;;;;6.25;0.50;;;2.70;79.30;;;;;;5030088;28;20331;-78
2023/03/27 06:49:15;;;;;;;1.55;0.40;;;2.70;79.90;;;;;;5031011;28;20404;-78
2023/03/27 06:51:42;;;;;;;8.32;0.98;;;2.60;80.20;;;;;;5056311;28;20179;-78
2023/03/27 06:54:13;;;;;;;7.85;0.70;;;2.60;80.00;;;;;;5044064;28;20041;-78
2023/03/27 06:56:45;;;;;;;3.37;0.40;;;2.60;80.20;;;;;;5067248;28;20056;-78
2023/03/27 06:59:17;;;;;;;4.88;0.88;;;2.60;80.60;;;;;;5040239;28;20273;-77
2023/03/27 07:01:51;;;;;;;4.53;0.90;;;2.60;80.90;;;;;;5032383;28;20097;-78
2023/03/27 07:04:37;;;;;;;5.25;0.50;;;2.50;80.80;;;;;;5041528;28;20150;-78
2023/03/27 07:07:14;;;;;;;4.82;0.57;;;2.50;81.30;;;;;;5036735;28;20053;-80
2023/03/27 07:09:44;;;;;;;3.97;0.30;;;2.50;82.40;;;;;;5033011;28;20135;-78
2023/03/27 07:12:15;;;;;;;3.00;0.40;;;2.50;83.20;;;;;;5040372;28;20391;-77
2023/03/27 07:14:45;;;;;;;3.00;0.50;;;2.50;82.70;;;;;;5025897;28;20050;-78
2023/03/27 07:17:12;;;;;;;3.53;0.38;;;2.60;82.60;;;;;;5040879;28;20058;-78
2023/03/27 07:19:49;;;;;;;2.25;0.30;;;2.70;82.40;;;;;;5048208;28;20132;-78
2023/03/27 07:22:18;;;;;;;4.53;0.57;;;2.70;83.00;;;;;;5034849;28;20428;-78
2023/03/27 07:24:46;;;;;;;2.53;0.50;;;2.70;83.30;;;;;;5027215;28;20241;-78
2023/03/27 07:27:15;;;;;;;2.40;0.30;;;2.80;83.10;;;;;;5036288;28;20056;-78
2023/03/27 07:29:43;;;;;;;3.80;0.35;;;2.90;83.60;;;;;;5029048;28;20200;-78
2023/03/27 07:32:15;;;;;;;4.68;0.47;;;2.90;83.10;;;;;;5047185;28;20055;-78
2023/03/27 07:34:49;;;;;;;3.83;0.50;;;3.00;82.80;;;;;;5029744;28;20049;-78
2023/03/27 07:37:36;;;;;;;7.05;1.05;;;3.00;82.60;;;;;;5041754;28;20304;-78
2023/03/27 07:40:25;;;;;;;3.85;0.85;;;3.10;82.40;;;;;;5047531;28;20498;-78
2023/03/27 07:43:13;;;;;;;2.90;0.52;;;3.10;82.10;;;;;;5041792;28;20046;-79
2023/03/27 07:45:40;;;;;;;3.97;0.95;;;3.10;82.60;;;;;;5020392;28;20851;-78
2023/03/27 07:48:09;;;;;;;3.93;1.10;;;3.20;82.30;;;;;;5027201;28;20057;-77
2023/03/27 07:50:37;;;;;;;4.57;0.70;;;3.30;82.20;;;;;;5035025;28;20377;-77
2023/03/27 07:53:06;;;;;;;4.55;0.60;;;3.30;81.90;;;;;;5019575;28;20050;-78
2023/03/27 07:55:36;;;;;;;6.38;0.88;;;3.40;81.70;;;;;;5040869;28;20046;-77
2023/03/27 07:58:06;;;;;;;3.63;0.50;;;3.50;80.60;;;;;;5047868;28;20056;-78
2023/03/27 08:00:35;;;;;;;6.60;0.67;;;3.50;80.40;;;;;;5059128;28;20514;-78
2023/03/27 08:03:13;;;;;;;6.05;0.95;;;3.60;79.70;;;;;;5029113;28;20271;-77
2023/03/27 08:05:53;;;;;;;5.05;0.70;;;3.70;78.80;;;;;;5047476;28;20596;-79
2023/03/27 08:08:21;;;;;;;7.05;0.98;;;3.80;78.80;;;;;;5040958;28;20216;-79
2023/03/27 08:10:58;;;;;;;3.30;0.50;;;3.90;77.70;;;;;;5031816;28;20566;-78
2023/03/27 08:13:29;;;;;;;3.13;0.30;;;3.90;75.50;;;;;;5032726;28;20058;-78
2023/03/27 08:16:09;;;;;;;6.55;0.60;;;4.00;75.50;;;;;;5057122;28;20259;-77
2023/03/27 08:18:37;;;;;;;2.47;0.30;;;4.00;75.70;;;;;;5030393;28;20051;-79
2023/03/27 08:21:08;;;;;;;2.97;0.20;;;4.00;76.70;;;;;;5030690;28;20264;-78
2023/03/27 08:23:36;;;;;;;4.95;0.30;;;4.00;77.20;;;;;;5036585;28;20216;-78
2023/03/27 08:26:26;;;;;;;2.57;0.27;;;4.00;77.40;;;;;;5043034;28;20044;-78
2023/03/27 08:28:59;;;;;;;1.60;0.20;;;4.00;77.60;;;;;;5051397;28;20252;-75
2023/03/27 08:31:29;;;;;;;4.95;0.40;;;4.00;77.90;;;;;;5061111;28;20577;-78
2023/03/27 08:34:01;;;;;;;3.17;0.30;;;4.00;77.90;;;;;;5035581;28;20495;-77
2023/03/27 08:36:39;;;;;;;3.45;0.30;;;3.90;78.40;;;;;;5053832;28;20061;-77
2023/03/27 08:39:07;;;;;;;3.63;0.40;;;4.00;78.40;;;;;;5052297;28;21058;-78
2023/03/27 08:41:49;;;;;;;2.88;0.40;;;4.00;78.30;;;;;;5031418;28;20276;-78
2023/03/27 08:44:24;;;;;;;2.88;0.30;;;3.90;77.90;;;;;;5031564;28;20046;-78
2023/03/27 08:46:57;;;;;;;3.80;0.50;;;3.90;78.20;;;;;;5039326;28;20570;-78
2023/03/27 08:49:30;;;;;;;1.92;0.20;;;3.90;77.40;;;;;;5038311;28;20502;-78
2023/03/27 08:52:14;;;;;;;3.03;0.30;;;3.90;77.60;;;;;;5047428;28;20491;-78
2023/03/27 08:54:45;;;;;;;3.50;0.50;;;3.90;78.10;;;;;;5049080;28;20256;-78
2023/03/27 08:57:23;;;;;;;7.47;0.40;;;3.90;78.20;;;;;;5053216;28;20052;-78
2023/03/27 08:59:59;;;;;;;2.95;0.30;;;4.00;78.40;;;;;;5045778;28;20502;-78
2023/03/27 09:02:38;;;;;;;2.50;0.43;;;4.00;77.90;;;;;;5035923;28;20092;-78
2023/03/27 09:05:16;;;;;;;4.33;0.50;;;4.10;77.10;;;;;;5019836;28;20049;-78
2023/03/27 09:07:48;;;;;;;7.25;1.00;;;4.10;76.30;;;;;;5032196;28;20762;-78
2023/03/27 09:10:35;;;;;;;5.50;0.82;;;4.20;76.90;;;;;;5046038;28;20053;-78
2023/03/27 09:13:15;;;;;;;4.40;0.63;;;4.30;76.70;;;;;;5032371;28;20049;-78
2023/03/27 09:15:52;;;;;;;4.13;0.65;;;4.40;76.10;;;;;;5032854;28;20553;-78
2023/03/27 09:18:23;;;;;;;3.07;0.57;;;4.50;75.60;;;;;;5054721;28;20050;-78
2023/03/27 09:20:56;;;;;;;4.15;0.45;;;4.50;76.40;;;;;;5032376;28;20269;-78
2023/03/27 09:23:28;;;;;;;2.10;0.20;;;4.50;76.60;;;;;;5039258;28;20075;-78
2023/03/27 09:26:18;;;;;;;2.67;0.20;;;4.50;75.20;;;;;;5039601;28;20187;-78
2023/03/27 09:29:05;;;;;;;1.00;0.10;;;4.50;74.90;;;;;;5035386;28;20048;-78
2023/03/27 09:31:45;;;;;;;1.33;0.10;;;4.50;74.80;;;;;;5031124;28;20132;-78
2023/03/27 09:34:15;;;;;;;1.77;0.20;;;4.40;75.70;;;;;;5036875;28;20282;-78
2023/03/27 09:36:45;;;;;;;0.95;0.10;;;4.40;75.70;;;;;;5030906;28;20065;-78
2023/03/27 09:39:21;;;;;;;2.42;0.28;;;4.40;75.50;;;;;;5048462;28;20057;-78
2023/03/27 09:41:52;;;;;;;1.17;0.10;;;4.40;75.20;;;;;;5037844;28;20138;-78
2023/03/27 09:44:25;;;;;;;1.33;0.20;;;4.50;75.00;;;;;;5044552;28;20052;-78
2023/03/27 09:46:58;;;;;;;4.63;0.32;;;4.50;73.90;;;;;;5039574;28;20272;-78
2023/03/27 09:49:27;;;;;;;1.15;0.10;;;4.50;73.50;;;;;;5031494;28;20056;-78
2023/03/27 09:51:57;;;;;;;1.23;0.20;;;4.50;72.70;;;;;;5029707;28;20467;-78
2023/03/27 09:54:52;;;;;;;3.45;0.35;;;4.60;73.50;;;;;;5028070;28;20385;-79
2023/03/27 09:57:22;;;;;;;2.63;0.20;;;4.70;73.90;;;;;;5029967;28;20045;-76
2023/03/27 10:00:00;;;;;;;2.47;0.32;;;4.70;74.10;;;;;;5046264;28;20281;-77
2023/03/27 10:02:29;;;;;;;1.95;0.20;;;4.80;73.50;;;;;;5037360;28;20984;-77
2023/03/27 10:05:01;;;;;;;4.65;0.30;;;4.90;73.30;;;;;;5047895;28;20160;-77
2023/03/27 10:07:39;;;;;;;3.53;0.50;;;5.00;73.20;;;;;;5025370;28;20038;-77
2023/03/27 10:10:24;;;;;;;1.50;0.40;;;5.00;73.00;;;;;;5045955;28;20108;-76
2023/03/27 10:13:03;;;;;;;4.03;0.50;;;5.10;73.80;;;;;;5042407;28;20261;-77
2023/03/27 10:15:41;;;;;;;4.10;0.47;;;5.20;72.50;;;;;;5027611;28;20530;-77
2023/03/27 10:18:30;;;;;;;4.05;0.28;;;5.30;71.70;;;;;;5039574;28;20062;-77
2023/03/27 10:21:10;;;;;;;1.02;0.20;;;5.30;70.90;;;;;;5041375;28;20050;-77
2023/03/27 10:23:43;;;;;;;4.87;0.40;;;5.50;71.90;;;;;;5041524;28;20930;-78
2023/03/27 10:26:18;;;;;;;2.40;0.22;;;5.50;71.20;;;;;;5042442;28;20287;-78
2023/03/27 10:28:51;;;;;;;5.80;0.32;;;5.60;71.10;;;;;;5040653;28;20050;-79
2023/03/27 10:31:29;;;;;;;3.53;0.40;;;5.60;69.10;;;;;;5044448;28;20132;-77
2023/03/27 10:34:38;;;;;;;3.90;0.65;;;5.70;68.30;;;;;;5037766;28;20479;-77
2023/03/27 10:37:28;;;;;;;2.83;0.33;;;5.70;65.90;;;;;;5052335;28;20055;-78
2023/03/27 10:40:17;;;;;;;3.67;0.20;;;5.80;67.20;;;;;;5020402;28;20264;-77
2023/03/27 10:42:48;;;;;;;3.47;0.35;;;5.90;66.40;;;;;;5050728;28;20564;-77
2023/03/27 10:45:18;;;;;;;3.22;0.32;;;5.90;63.60;;;;;;5029881;28;20626;-77
2023/03/27 10:47:51;;;;;;;2.97;0.50;;;6.00;64.30;;;;;;5029624;28;20065;-78
2023/03/27 10:50:21;;;;;;;4.17;0.67;;;6.00;62.90;;;;;;5029421;28;20106;-77
2023/03/27 10:52:59;;;;;;;3.40;0.68;;;6.10;62.50;;;;;;5043486;28;20868;-78
2023/03/27 10:55:47;;;;;;;2.80;0.40;;;6.10;64.00;;;;;;5034745;28;20583;-78
2023/03/27 10:58:31;;;;;;;2.83;0.20;;;6.20;65.30;;;;;;5020489;28;20054;-78
2023/03/27 11:01:05;;;;;;;2.70;0.30;;;6.20;64.60;;;;;;5027247;28;20231;-79
2023/03/27 11:03:39;;;;;;;3.20;0.20;;;6.30;65.10;;;;;;5028789;28;20076;-78
2023/03/27 11:06:14;;;;;;;2.05;0.30;;;6.30;64.70;;;;;;5027749;28;20253;-79
2023/03/27 11:08:52;;;;;;;4.07;0.30;;;6.40;64.90;;;;;;5044836;28;20046;-79
2023/03/27 11:11:28;;;;;;;3.38;0.40;;;6.50;64.90;;;;;;5027932;28;20498;-78
2023/03/27 11:14:01;;;;;;;3.28;0.20;;;6.50;63.80;;;;;;5047234;28;20049;-79
2023/03/27 11:16:35;;;;;;;2.20;0.40;;;6.50;63.70;;;;;;5042804;28;20085;-79
2023/03/27 11:19:34;;;;;;;3.70;0.50;;;6.60;64.30;;;;;;5044235;28;20427;-79
2023/03/27 11:22:31;;;;;;;3.78;0.70;;;6.70;64.00;;;;;;5012099;28;20079;-78
2023/03/27 11:25:05;;;;;;;4.07;0.40;;;6.70;63.70;;;;;;5043728;28;20183;-79
2023/03/27 11:27:38;;;;;;;2.05;0.20;;;6.80;61.10;;;;;;5022505;28;20050;-77
2023/03/27 11:30:31;;;;;;;2.70;0.40;;;6.80;61.60;;;;;;5027006;28;20510;-80
2023/03/27 11:33:18;;;;;;;5.50;0.50;;;6.90;59.40;;;;;;5038310;28;20801;-83
2023/03/27 11:35:50;;;;;;;3.05;0.20;;;6.90;60.10;;;;;;5030260;28;20066;-79
2023/03/27 11:38:46;;;;;;;1.83;0.28;;;7.00;59.30;;;;;;5031397;28;20144;-78
2023/03/27 11:41:15;;;;;;;4.30;0.57;;;7.00;61.90;;;;;;5030370;28;20056;-78
2023/03/27 11:43:42;;;;;;;1.30;0.13;;;7.10;64.20;;;;;;5050802;28;20052;-86
2023/03/27 11:46:42;;;;;;;2.10;0.32;;;7.20;64.80;;;;;;5043994;28;20286;-83
2023/03/27 11:49:22;;;;;;;2.25;0.30;;;7.20;64.60;;;;;;5024576;28;20376;-82
2023/03/27 11:52:05;;;;;;;2.83;0.30;;;7.10;62.00;;;;;;5048582;28;20065;-80
2023/03/27 11:55:05;;;;;;;3.45;0.30;;;7.00;62.70;;;;;;5021934;28;20046;-80
2023/03/27 11:57:45;;;;;;;2.63;0.30;;;7.00;64.10;;;;;;5024413;28;20056;-77
2023/03/27 12:00:33;;;;;;;2.78;0.63;;;6.90;62.90;;;;;;5030699;28;20837;-79
2023/03/27 12:03:38;;;;;;;5.28;0.25;;;6.90;62.50;;;;;;5050611;28;20096;-80
2023/03/27 12:06:16;;;;;;;3.30;0.30;;;6.90;64.20;;;;;;5019966;28;20046;-79
2023/03/27 12:09:01;;;;;;;3.13;0.20;;;6.90;61.60;;;;;;5034026;28;20049;-79
2023/03/27 12:11:38;;;;;;;2.03;0.27;;;7.00;62.20;;;;;;5026923;28;20050;-78
2023/03/27 12:14:29;;;;;;;2.47;0.40;;;7.00;63.70;;;;;;5056951;28;20288;-77
2023/03/27 12:17:20;;;;;;;2.15;0.10;;;7.10;61.00;;;;;;5031933;28;20053;-76
2023/03/27 12:20:18;;;;;;;3.38;0.28;;;7.20;61.80;;;;;;5034457;28;20049;-75
2023/03/27 12:22:58;;;;;;;4.40;0.60;;;7.30;59.70;;;;;;5062646;28;20061;-79
2023/03/27 12:26:17;;;;;;;2.37;0.30;;;7.30;58.20;;;;;;5040144;28;20049;-80
2023/03/27 12:29:15;;;;;;;4.90;0.40;;;7.00;60.00;;;;;;5042100;28;20409;-80
2023/03/27 12:31:59;;;;;;;3.30;0.25;;;7.00;62.30;;;;;;5035368;28;20494;-78
2023/03/27 12:34:48;;;;;;;5.88;0.38;;;6.90;62.80;;;;;;5036485;28;20049;-82
2023/03/27 12:37:21;;;;;;;2.70;0.28;;;6.90;64.10;;;;;;5055207;28;20824;-80
2023/03/27 12:39:57;;;;;;;3.67;0.27;;;6.80;65.70;;;;;;5046760;28;20045;-79
2023/03/27 12:42:42;;;;;;;4.55;0.38;;;6.90;65.90;;;;;;5026287;28;20258;-77
2023/03/27 12:45:16;;;;;;;3.35;0.30;;;6.90;66.30;;;;;;5034237;28;20053;-74
2023/03/27 12:48:06;;;;;;;5.38;0.63;;;7.00;64.70;;;;;;5037629;28;20057;-77
2023/03/27 12:50:41;;;;;;;4.32;0.50;;;7.00;63.20;;;;;;5021304;28;20053;-78
2023/03/27 12:53:19;;;;;;;3.57;0.30;;;7.00;60.50;;;;;;5045659;28;20049;-80
2023/03/27 12:55:46;;;;;;;3.40;0.17;;;7.00;60.20;;;;;;5026016;28;20340;-78
2023/03/27 12:58:33;;;;;;;2.00;0.10;;;7.00;57.50;;;;;;5034196;28;20057;-76
2023/03/27 13:01:09;;;;;;;4.85;0.50;;;7.00;59.40;;;;;;5048642;28;20052;-78
2023/03/27 13:04:05;;;;;;;1.77;0.20;;;7.10;56.40;;;;;;5023541;28;20862;-77
2023/03/27 13:06:44;;;;;;;4.73;0.40;;;7.20;57.10;;;;;;5024797;28;20647;-77
2023/03/27 13:09:27;;;;;;;3.20;0.28;;;7.20;57.50;;;;;;5041271;28;20291;-77
2023/03/27 13:12:32;;;;;;;7.18;0.88;;;7.30;57.90;;;;;;5043171;28;20207;-76
2023/03/27 13:15:45;;;;;;;4.85;0.50;;;7.40;57.00;;;;;;5034439;28;20636;-79
2023/03/27 13:18:49;;;;;;;5.20;0.43;;;7.40;57.60;;;;;;5038304;28;20057;-76
2023/03/27 13:21:28;;;;;;;5.20;0.60;;;7.50;59.60;;;;;;5024306;28;20050;-89
2023/03/27 13:24:15;;;;;;;5.47;0.32;;;7.50;60.30;;;;;;5031618;28;20311;-80
2023/03/27 13:27:04;;;;;;;4.03;0.47;;;7.60;59.60;;;;;;5024864;28;20727;-79
2023/03/27 13:29:36;;;;;;;4.53;0.38;;;7.80;58.40;;;;;;5052159;28;20057;-78
2023/03/27 13:32:31;;;;;;;6.03;0.65;;;7.80;59.90;;;;;;5043410;28;20499;-79
2023/03/27 13:35:39;;;;;;;3.33;0.30;;;7.90;61.20;;;;;;5039848;28;20130;-78
2023/03/27 13:38:10;;;;;;;2.38;0.63;;;8.00;61.70;;;;;;5042538;28;20249;-78
2023/03/27 13:41:32;;;;;;;3.38;0.30;;;8.00;59.00;;;;;;5032161;28;20124;-78
2023/03/27 13:44:01;;;;;;;3.58;0.50;;;8.00;58.70;;;;;;5017529;28;20130;-78
2023/03/27 13:46:36;;;;;;;1.73;0.20;;;7.80;59.20;;;;;;5026957;28;20124;-79